Time;durP1;ratioP1;P1;durP2;ratioP2;P2;SDS_P1;SDS_P2;PMS_P1;PMS_P2;Temp;Humidity;BMP_temperature;BMP_pressure;BME280_temperature;BME280_humidity;BME280_pressure;Samples;Min_cycle;Max_cycle;Signal;HPM_P1;HPM_P2
2023/09/04 00:00:20;;;;;;;19.83;8.48;;;;;;;14.22;100.00;102570.28;5073011;28;20035;-68
2023/09/04 00:02:47;;;;;;;20.38;8.88;;;;;;;14.21;100.00;102582.72;5072855;28;20031;-70
2023/09/04 00:05:12;;;;;;;19.73;8.50;;;;;;;14.20;100.00;102580.00;5073133;28;20111;-68
2023/09/04 00:07:37;;;;;;;20.42;8.85;;;;;;;14.17;100.00;102575.53;5071663;28;20444;-70
2023/09/04 00:10:03;;;;;;;20.08;8.50;;;;;;;14.20;100.00;102570.28;5072985;28;20078;-70
2023/09/04 00:12:29;;;;;;;19.55;8.88;;;;;;;14.01;100.00;102566.41;5072842;28;20035;-67
2023/09/04 00:14:54;;;;;;;21.13;8.60;;;;;;;13.90;100.00;102570.63;5072628;28;20099;-69
2023/09/04 00:17:20;;;;;;;19.75;9.18;;;;;;;13.89;100.00;102558.19;5073019;28;20032;-69
2023/09/04 00:19:46;;;;;;;21.05;8.77;;;;;;;13.80;100.00;102556.28;5072701;28;20021;-69
2023/09/04 00:22:12;;;;;;;19.67;7.88;;;;;;;13.68;100.00;102556.94;5072916;28;20048;-66
2023/09/04 00:24:37;;;;;;;20.70;8.48;;;;;;;13.64;100.00;102563.06;5072995;28;20036;-67
2023/09/04 00:27:03;;;;;;;20.40;8.98;;;;;;;13.59;100.00;102562.97;5068439;28;20025;-67
2023/09/04 00:29:28;;;;;;;19.80;8.55;;;;;;;13.60;100.00;102562.13;5072870;28;20442;-68
2023/09/04 00:31:54;;;;;;;19.67;8.20;;;;;;;13.62;100.00;102562.16;5072787;28;20056;-70
2023/09/04 00:34:19;;;;;;;19.70;8.45;;;;;;;13.56;100.00;102554.97;5072626;28;20071;-70
2023/09/04 00:36:44;;;;;;;18.63;8.00;;;;;;;13.59;100.00;102557.66;5072370;28;20044;-66
2023/09/04 00:39:10;;;;;;;18.63;7.82;;;;;;;13.60;100.00;102562.13;5072607;28;20475;-68
2023/09/04 00:41:35;;;;;;;19.45;7.97;;;;;;;13.65;100.00;102561.31;5072521;28;20024;-70
2023/09/04 00:44:00;;;;;;;17.92;7.65;;;;;;;13.54;100.00;102561.09;5072519;28;20024;-67
2023/09/04 00:46:26;;;;;;;18.50;7.78;;;;;;;13.48;100.00;102553.91;5072542;28;20116;-69
2023/09/04 00:48:52;;;;;;;20.27;8.10;;;;;;;13.41;100.00;102566.19;5072322;28;20495;-65
2023/09/04 00:51:18;;;;;;;19.05;8.55;;;;;;;13.24;100.00;102564.91;5072540;28;20036;-67
2023/09/04 00:53:43;;;;;;;18.70;8.15;;;;;;;13.15;100.00;102570.94;5072368;28;20112;-71
2023/09/04 00:56:13;;;;;;;18.73;8.73;;;;;;;13.12;100.00;102575.25;5072471;28;20036;-66
2023/09/04 00:58:38;;;;;;;21.33;8.80;;;;;;;13.14;100.00;102566.47;5072320;28;20420;-65
2023/09/04 01:01:04;;;;;;;22.85;9.98;;;;;;;13.10;100.00;102569.03;5072575;28;20059;-66
2023/09/04 01:03:31;;;;;;;19.77;8.93;;;;;;;13.11;100.00;102561.09;5072177;28;20048;-67
2023/09/04 01:05:57;;;;;;;20.38;8.90;;;;;;;13.14;100.00;102569.13;5072558;28;20384;-63
2023/09/04 01:08:22;;;;;;;18.45;7.38;;;;;;;13.07;100.00;102565.44;5072054;28;20029;-64
2023/09/04 01:11:26;;;;;;;18.77;7.18;;;;;;;13.04;100.00;102567.16;5072412;28;20060;-66
2023/09/04 01:13:54;;;;;;;18.85;7.30;;;;;;;12.91;100.00;102569.53;5070598;28;20103;-68
2023/09/04 01:16:21;;;;;;;18.75;6.78;;;;;;;12.79;100.00;102563.06;5072502;28;20020;-66
2023/09/04 01:18:47;;;;;;;19.30;8.20;;;;;;;12.69;100.00;102560.19;5072583;28;20093;-67
2023/09/04 01:21:13;;;;;;;19.30;8.90;;;;;;;12.62;100.00;102560.03;5072088;28;20024;-68
2023/09/04 01:23:38;;;;;;;19.85;8.40;;;;;;;12.68;100.00;102555.75;5072980;28;20032;-67
2023/09/04 01:26:11;;;;;;;20.08;8.50;;;;;;;12.68;100.00;102554.84;5071880;28;20032;-68
2023/09/04 01:28:48;;;;;;;19.88;8.73;;;;;;;12.60;100.00;102559.09;5072295;28;20036;-70
2023/09/04 01:31:19;;;;;;;20.60;10.23;;;;;;;12.53;100.00;102561.59;5073218;28;20021;-70
2023/09/04 01:33:51;;;;;;;20.48;9.70;;;;;;;12.47;100.00;102563.22;5075779;28;20428;-65
2023/09/04 01:36:17;;;;;;;20.98;9.88;;;;;;;12.52;100.00;102564.22;5075459;28;20044;-68
2023/09/04 01:38:46;;;;;;;19.83;9.20;;;;;;;12.40;100.00;102554.19;5075880;28;20040;-61
2023/09/04 01:41:12;;;;;;;19.63;9.20;;;;;;;12.47;100.00;102561.44;5075578;28;20028;-69
2023/09/04 01:43:37;;;;;;;19.83;9.10;;;;;;;12.49;100.00;102561.47;5075600;28;20028;-70
2023/09/04 01:46:02;;;;;;;20.17;9.38;;;;;;;12.49;100.00;102553.53;5075710;28;20387;-64
2023/09/04 01:48:28;;;;;;;19.67;9.00;;;;;;;12.48;100.00;102557.94;5075556;28;20166;-63
2023/09/04 01:50:56;;;;;;;21.02;9.32;;;;;;;12.35;100.00;102553.22;5075451;28;20466;-61
2023/09/04 01:53:22;;;;;;;20.88;9.80;;;;;;;12.30;100.00;102552.19;5075555;28;20535;-69
2023/09/04 01:55:48;;;;;;;20.73;11.07;;;;;;;12.44;100.00;102557.84;5075371;28;20043;-68
2023/09/04 01:58:13;;;;;;;20.10;10.05;;;;;;;12.38;100.00;102555.94;5075592;28;20016;-68
2023/09/04 02:00:38;;;;;;;19.50;9.55;;;;;;;12.41;100.00;102568.34;5075386;28;20125;-66
2023/09/04 02:03:04;;;;;;;20.33;10.00;;;;;;;12.46;100.00;102553.47;5071439;28;20036;-69
2023/09/04 02:05:29;;;;;;;20.75;9.77;;;;;;;12.41;100.00;102545.41;5075434;28;20021;-66
2023/09/04 02:07:54;;;;;;;20.95;9.93;;;;;;;12.40;100.00;102551.56;5075107;28;20036;-64
2023/09/04 02:10:23;;;;;;;21.10;9.90;;;;;;;12.31;100.00;102544.28;5075264;28;20028;-69
2023/09/04 02:12:49;;;;;;;20.13;9.25;;;;;;;12.32;100.00;102547.81;5075158;28;20032;-69
2023/09/04 02:15:15;;;;;;;21.00;9.30;;;;;;;12.19;100.00;102544.00;5074994;28;20426;-69
2023/09/04 02:17:40;;;;;;;19.88;9.32;;;;;;;12.16;100.00;102542.16;5074970;28;20486;-68
2023/09/04 02:20:06;;;;;;;21.40;9.27;;;;;;;12.17;100.00;102540.38;5074117;28;20037;-70
2023/09/04 02:22:32;;;;;;;19.73;8.90;;;;;;;12.07;100.00;102533.94;5074888;28;20024;-68
2023/09/04 02:24:57;;;;;;;19.35;8.52;;;;;;;12.04;100.00;102533.88;5074743;28;20035;-69
2023/09/04 02:27:23;;;;;;;20.33;10.30;;;;;;;12.04;100.00;102539.19;5074907;28;20021;-70
2023/09/04 02:29:48;;;;;;;21.63;10.88;;;;;;;12.09;100.00;102534.03;5074947;28;20036;-69
2023/09/04 02:32:13;;;;;;;20.63;10.05;;;;;;;12.10;100.00;102530.50;5074635;28;20036;-69
2023/09/04 02:34:40;;;;;;;20.83;10.73;;;;;;;12.06;100.00;102536.56;5074650;28;20091;-69
2023/09/04 02:37:05;;;;;;;21.88;11.23;;;;;;;12.07;100.00;102519.81;5070638;28;20032;-70
2023/09/04 02:39:31;;;;;;;22.50;11.98;;;;;;;12.07;100.00;102523.34;5074768;28;20028;-68
2023/09/04 02:41:56;;;;;;;21.55;11.82;;;;;;;12.03;100.00;102525.03;5075005;28;20033;-70
2023/09/04 02:44:22;;;;;;;22.33;11.70;;;;;;;11.90;100.00;102520.25;5073192;28;20039;-67
2023/09/04 02:46:47;;;;;;;21.52;11.68;;;;;;;11.89;100.00;102530.81;5074657;28;20491;-69
2023/09/04 02:49:12;;;;;;;22.20;12.05;;;;;;;11.85;100.00;102525.44;5074267;28;20055;-71
2023/09/04 02:51:38;;;;;;;21.77;11.93;;;;;;;11.77;100.00;102526.09;5074647;28;20032;-68
2023/09/04 02:54:03;;;;;;;22.20;12.63;;;;;;;11.68;100.00;102525.00;5074481;28;20035;-69
2023/09/04 02:56:28;;;;;;;22.58;12.73;;;;;;;11.63;100.00;102528.38;5074148;28;20475;-68
2023/09/04 02:58:54;;;;;;;22.27;12.63;;;;;;;11.71;100.00;102529.50;5074450;28;20025;-68
2023/09/04 03:01:19;;;;;;;22.83;13.02;;;;;;;11.71;100.00;102523.28;5074335;28;20016;-68
2023/09/04 03:03:46;;;;;;;22.23;12.68;;;;;;;11.71;100.00;102521.53;5074013;28;20051;-65
2023/09/04 03:06:12;;;;;;;22.55;13.18;;;;;;;11.67;100.00;102515.25;5074352;28;20166;-71
2023/09/04 03:08:38;;;;;;;22.70;12.95;;;;;;;11.66;100.00;102517.84;5072755;28;20485;-67
2023/09/04 03:11:10;;;;;;;22.60;13.35;;;;;;;11.65;100.00;102518.75;5074010;28;20033;-69
2023/09/04 03:13:37;;;;;;;22.85;13.20;;;;;;;11.69;100.00;102518.84;5070177;28;20032;-64
2023/09/04 03:16:05;;;;;;;23.52;13.50;;;;;;;11.70;100.00;102506.50;5074059;28;20081;-62
2023/09/04 03:18:30;;;;;;;23.13;13.70;;;;;;;11.69;100.00;102488.78;5073795;28;20502;-63
2023/09/04 03:20:56;;;;;;;23.50;14.65;;;;;;;11.71;100.00;102492.41;5073681;28;20016;-67
2023/09/04 03:23:21;;;;;;;25.08;15.40;;;;;;;11.69;100.00;102494.09;5073922;28;20063;-68
2023/09/04 03:25:46;;;;;;;24.10;14.73;;;;;;;11.67;100.00;102496.69;5073798;28;20020;-62
2023/09/04 03:28:12;;;;;;;25.23;15.32;;;;;;;11.61;100.00;102488.59;5073788;28;20486;-67
2023/09/04 03:30:37;;;;;;;24.73;15.80;;;;;;;11.59;100.00;102492.06;5073888;28;20103;-64
2023/09/04 03:33:03;;;;;;;26.38;16.52;;;;;;;11.66;100.00;102494.94;5073451;28;20025;-67
2023/09/04 03:35:28;;;;;;;24.65;16.25;;;;;;;11.67;100.00;102496.69;5073297;28;20052;-72
2023/09/04 03:37:54;;;;;;;25.00;15.75;;;;;;;11.62;100.00;102508.03;5073819;28;20036;-68
2023/09/04 03:40:21;;;;;;;24.42;15.45;;;;;;;11.56;100.00;102510.53;5073246;28;20099;-69
2023/09/04 03:42:46;;;;;;;25.73;16.65;;;;;;;11.65;100.00;102513.44;5073308;28;20036;-64
2023/09/04 03:45:12;;;;;;;25.77;16.48;;;;;;;11.58;100.00;102506.19;5089121;28;20024;-61
2023/09/04 03:47:38;;;;;;;25.70;16.38;;;;;;;11.56;100.00;102499.94;5072947;28;20041;-64
2023/09/04 03:50:04;;;;;;;25.13;16.38;;;;;;;11.52;100.00;102507.78;5073138;28;20514;-61
2023/09/04 03:52:30;;;;;;;24.90;16.52;;;;;;;11.54;100.00;102509.59;5073287;28;20028;-66
2023/09/04 03:54:55;;;;;;;24.75;15.25;;;;;;;11.49;100.00;102497.13;5073115;28;20025;-69
2023/09/04 03:57:20;;;;;;;25.58;16.90;;;;;;;11.56;100.00;102489.34;5073184;28;20039;-61
2023/09/04 03:59:46;;;;;;;25.52;17.05;;;;;;;11.47;100.00;102493.53;5073027;28;20025;-67
2023/09/04 04:02:11;;;;;;;24.42;16.25;;;;;;;11.40;100.00;102486.31;5072960;28;20020;-70
2023/09/04 04:04:36;;;;;;;24.55;16.20;;;;;;;11.39;100.00;102486.22;5073389;28;20063;-70
2023/09/04 04:07:03;;;;;;;25.50;17.48;;;;;;;11.42;100.00;102489.88;5073011;28;20052;-69
2023/09/04 04:09:29;;;;;;;25.33;16.48;;;;;;;11.42;100.00;102489.88;5072730;28;20032;-70
2023/09/04 04:11:54;;;;;;;24.02;14.98;;;;;;;11.35;100.00;102498.50;5073250;28;20041;-68
2023/09/04 04:14:20;;;;;;;23.90;14.68;;;;;;;11.33;100.00;102495.81;5072788;28;20430;-69
2023/09/04 04:16:45;;;;;;;24.75;15.25;;;;;;;11.26;100.00;102491.19;5071424;28;20039;-70
2023/09/04 04:19:11;;;;;;;24.50;15.55;;;;;;;11.27;100.00;102492.09;5072961;28;20020;-69
2023/09/04 04:21:36;;;;;;;23.85;15.13;;;;;;;11.19;100.00;102491.88;5072831;28;20059;-69
2023/09/04 04:24:03;;;;;;;23.27;14.30;;;;;;;11.19;100.00;102491.00;5072598;28;20078;-70
2023/09/04 04:26:28;;;;;;;23.17;14.80;;;;;;;11.16;100.00;102490.03;5072816;28;20035;-70
2023/09/04 04:28:53;;;;;;;24.17;14.75;;;;;;;11.16;100.00;102490.03;5072604;28;20040;-70
2023/09/04 04:31:19;;;;;;;24.60;15.27;;;;;;;11.15;100.00;102477.69;5072760;28;20029;-68
2023/09/04 04:33:44;;;;;;;23.65;14.63;;;;;;;11.13;100.00;102482.00;5072860;28;20064;-68
2023/09/04 04:36:10;;;;;;;24.17;14.93;;;;;;;11.13;100.00;102487.31;5072299;28;20072;-70
2023/09/04 04:38:35;;;;;;;26.08;16.42;;;;;;;11.14;100.00;102489.13;5072682;28;20062;-67
2023/09/04 04:41:00;;;;;;;24.38;15.60;;;;;;;11.11;100.00;102489.03;5072513;28;20055;-69
2023/09/04 04:43:26;;;;;;;23.85;14.90;;;;;;;11.02;100.00;102491.41;5072513;28;20086;-70
2023/09/04 04:45:52;;;;;;;24.33;15.45;;;;;;;11.01;100.00;102492.28;5072765;28;20020;-70
2023/09/04 04:48:19;;;;;;;23.92;15.63;;;;;;;11.03;100.00;102485.25;5072596;28;20024;-68
2023/09/04 04:50:44;;;;;;;24.55;15.65;;;;;;;11.06;100.00;102493.28;5072318;28;20528;-66
2023/09/04 04:53:09;;;;;;;24.90;16.17;;;;;;;11.02;100.00;102482.56;5072675;28;20032;-70
2023/09/04 04:55:35;;;;;;;24.60;15.40;;;;;;;10.94;100.00;102480.59;5072395;28;20023;-68
2023/09/04 04:58:00;;;;;;;23.40;15.07;;;;;;;10.97;100.00;102483.34;5072502;28;20071;-65
2023/09/04 05:00:25;;;;;;;25.33;15.88;;;;;;;11.03;100.00;102485.25;5076356;28;20032;-67
2023/09/04 05:02:52;;;;;;;26.33;16.90;;;;;;;11.02;100.00;102488.75;5076422;28;20036;-62
2023/09/04 05:05:17;;;;;;;26.73;17.02;;;;;;;11.01;100.00;102473.75;5076386;28;20024;-64
2023/09/04 05:07:42;;;;;;;25.55;16.23;;;;;;;11.04;100.00;102489.72;5076507;28;20035;-62
2023/09/04 05:10:09;;;;;;;25.00;16.23;;;;;;;11.07;100.00;102483.63;5076191;28;20491;-61
2023/09/04 05:12:34;;;;;;;24.80;15.63;;;;;;;11.05;100.00;102488.84;5076133;28;20048;-64
2023/09/04 05:14:59;;;;;;;24.85;15.73;;;;;;;11.04;100.00;102495.00;5076301;28;20020;-65
2023/09/04 05:17:25;;;;;;;26.50;16.15;;;;;;;11.05;100.00;102494.13;5076385;28;20107;-63
2023/09/04 05:19:50;;;;;;;25.95;16.65;;;;;;;11.07;100.00;102497.72;5076268;28;20029;-63
2023/09/04 05:22:15;;;;;;;24.75;15.43;;;;;;;11.11;100.00;102498.69;5076012;28;20054;-69
2023/09/04 05:24:41;;;;;;;24.40;15.27;;;;;;;11.23;100.00;102496.41;5076272;28;20021;-64
2023/09/04 05:27:06;;;;;;;26.38;16.10;;;;;;;11.29;100.00;102493.03;5074771;28;20135;-64
2023/09/04 05:29:32;;;;;;;26.63;17.33;;;;;;;11.37;100.00;102488.84;5091532;28;20119;-66
2023/09/04 05:31:57;;;;;;;27.13;17.90;;;;;;;11.40;100.00;102481.00;5075986;28;20037;-67
2023/09/04 05:34:23;;;;;;;25.38;16.05;;;;;;;11.44;100.00;102490.78;5076247;28;20020;-64
2023/09/04 05:36:48;;;;;;;26.45;16.15;;;;;;;11.49;100.00;102486.53;5075595;28;20048;-65
2023/09/04 05:39:13;;;;;;;26.63;17.10;;;;;;;11.57;100.00;102488.50;5075814;28;20036;-61
2023/09/04 05:41:39;;;;;;;26.50;17.08;;;;;;;11.60;100.00;102486.81;5091643;28;20141;-61
2023/09/04 05:44:04;;;;;;;26.38;16.75;;;;;;;11.65;100.00;102493.13;5075533;28;20029;-67
2023/09/04 05:46:33;;;;;;;26.58;18.45;;;;;;;11.73;100.00;102490.66;5072838;28;20045;-60
2023/09/04 05:48:58;;;;;;;25.50;18.10;;;;;;;11.81;100.00;102493.50;5070801;28;20036;-65
2023/09/04 05:51:24;;;;;;;26.48;17.88;;;;;;;11.89;100.00;102496.38;5072061;28;20522;-67
2023/09/04 05:53:50;;;;;;;25.95;17.17;;;;;;;11.95;100.00;102499.19;5074468;28;20047;-67
2023/09/04 05:56:16;;;;;;;25.13;16.80;;;;;;;12.04;100.00;102496.78;5075533;28;20103;-66
2023/09/04 05:58:45;;;;;;;27.05;18.63;;;;;;;12.08;100.00;102493.34;5074988;28;20107;-63
2023/09/04 06:01:11;;;;;;;28.17;19.05;;;;;;;12.13;100.00;102494.38;5075034;28;20020;-66
2023/09/04 06:03:37;;;;;;;27.85;19.00;;;;;;;12.19;100.00;102493.63;5075184;28;20100;-64
2023/09/04 06:06:02;;;;;;;27.48;19.20;;;;;;;12.30;100.00;102499.16;5074944;28;20566;-67
2023/09/04 06:08:29;;;;;;;28.35;19.10;;;;;;;12.38;100.00;102500.25;5074963;28;20059;-65
2023/09/04 06:10:55;;;;;;;27.58;19.88;;;;;;;12.44;100.00;102497.72;5074581;28;20076;-66
2023/09/04 06:13:20;;;;;;;26.40;18.80;;;;;;;12.53;100.00;102491.75;5074867;28;20463;-64
2023/09/04 06:15:45;;;;;;;27.58;19.90;;;;;;;12.61;100.00;102495.47;5074974;28;20024;-65
2023/09/04 06:18:11;;;;;;;26.77;18.63;;;;;;;12.69;100.00;102495.63;5074011;28;20036;-64
2023/09/04 06:20:36;;;;;;;26.70;19.15;;;;;;;12.75;100.00;102502.81;5074959;28;20460;-62
2023/09/04 06:23:03;;;;;;;27.80;19.88;;;;;;;12.80;100.00;102506.47;5074988;28;20028;-67
2023/09/04 06:25:28;;;;;;;26.85;20.30;;;;;;;12.88;100.00;102504.88;5074718;28;20029;-63
2023/09/04 06:27:53;;;;;;;28.17;20.20;;;;;;;12.97;100.00;102501.50;5074466;28;20094;-61
2023/09/04 06:30:19;;;;;;;28.20;20.17;;;;;;;13.06;100.00;102512.31;5075183;28;20111;-64
2023/09/04 06:32:45;;;;;;;26.80;19.25;;;;;;;13.14;100.00;102507.19;5074449;28;20487;-65
2023/09/04 06:35:10;;;;;;;27.52;18.92;;;;;;;13.21;100.00;102501.13;5074160;28;20048;-66
2023/09/04 06:37:35;;;;;;;28.15;19.70;;;;;;;13.27;100.00;102500.34;5074707;28;20029;-67
2023/09/04 06:40:02;;;;;;;26.90;19.33;;;;;;;13.32;100.00;102501.31;5074288;28;20029;-62
2023/09/04 06:42:27;;;;;;;28.65;20.80;;;;;;;13.44;100.00;102504.25;5074247;28;20028;-62
2023/09/04 06:44:52;;;;;;;28.65;20.73;;;;;;;13.49;100.00;102496.38;5074412;28;20034;-60
2023/09/04 06:47:18;;;;;;;27.92;20.35;;;;;;;13.55;100.00;102500.03;5074135;28;20036;-61
2023/09/04 06:49:43;;;;;;;29.40;20.63;;;;;;;13.63;100.00;102491.28;5074070;28;20510;-62
2023/09/04 06:52:08;;;;;;;27.70;20.92;;;;;;;13.74;100.00;102493.28;5073848;28;20459;-64
2023/09/04 06:54:34;;;;;;;28.30;20.85;;;;;;;13.85;100.00;102497.88;5073987;28;20036;-62
2023/09/04 06:56:59;;;;;;;28.23;20.58;;;;;;;13.91;100.00;102492.69;5074370;28;20031;-61
2023/09/04 06:59:26;;;;;;;28.25;20.58;;;;;;;13.99;100.00;102492.81;5069815;28;20031;-63
2023/09/04 07:01:51;;;;;;;26.90;20.33;;;;;;;14.07;100.00;102488.50;5073912;28;20033;-61
2023/09/04 07:04:17;;;;;;;28.15;20.92;;;;;;;14.16;100.00;102493.97;5073994;28;20071;-62
2023/09/04 07:06:43;;;;;;;29.02;21.27;;;;;;;14.25;100.00;102488.78;5073838;28;20038;-60
2023/09/04 07:09:08;;;;;;;27.77;20.90;;;;;;;14.37;100.00;102497.81;5073537;28;20039;-60
2023/09/04 07:11:33;;;;;;;28.08;21.10;;;;;;;14.51;100.00;102490.06;5071787;28;20063;-67
2023/09/04 07:13:59;;;;;;;28.52;19.40;;;;;;;14.58;100.00;102484.81;5070161;28;20025;-67
2023/09/04 07:16:25;;;;;;;27.67;20.13;;;;;;;14.71;100.00;102487.66;5069626;28;20057;-67
2023/09/04 07:18:51;;;;;;;27.25;20.25;;;;;;;14.86;100.00;102487.88;5066773;28;20448;-63
2023/09/04 07:21:16;;;;;;;29.15;21.33;;;;;;;14.97;100.00;102478.25;5073055;28;20025;-65
2023/09/04 07:23:41;;;;;;;26.70;19.80;;;;;;;15.14;100.00;102477.56;5073303;28;20456;-61
2023/09/04 07:26:07;;;;;;;27.20;19.90;;;;;;;15.26;100.00;102485.69;5073559;28;20106;-64
2023/09/04 07:28:32;;;;;;;27.30;20.25;;;;;;;15.39;100.00;102477.81;5073684;28;20052;-65
2023/09/04 07:31:17;;;;;;;26.40;19.20;;;;;;;15.49;100.00;102477.94;5073523;28;20024;-62
2023/09/04 07:33:43;;;;;;;26.05;19.10;;;;;;;15.64;100.00;102476.28;5073885;28;20086;-60
2023/09/04 07:36:08;;;;;;;27.02;18.75;;;;;;;15.78;100.00;102481.75;5073145;28;20405;-65
2023/09/04 07:38:34;;;;;;;25.52;17.63;;;;;;;15.94;100.00;102480.13;5064809;28;20054;-64
2023/09/04 07:41:03;;;;;;;26.52;18.63;;;;;;;16.08;100.00;102485.59;5069500;28;20044;-60
2023/09/04 07:43:30;;;;;;;25.70;17.85;;;;;;;16.19;100.00;102484.78;5069557;28;20051;-61
2023/09/04 07:45:56;;;;;;;24.30;16.48;;;;;;;16.31;100.00;102480.38;5068949;28;20025;-61
2023/09/04 07:48:21;;;;;;;25.48;16.60;;;;;;;16.46;100.00;102476.94;5071721;28;20035;-64
2023/09/04 07:50:48;;;;;;;24.13;15.93;;;;;;;16.63;100.00;102477.91;5072948;28;20035;-67
2023/09/04 07:53:14;;;;;;;25.08;16.83;;;;;;;16.83;100.00;102477.09;5073102;28;20052;-64
2023/09/04 07:55:39;;;;;;;23.67;15.07;;;;;;;17.02;100.00;102468.31;5072646;28;20491;-67
2023/09/04 07:58:05;;;;;;;23.60;14.98;;;;;;;17.28;100.00;102453.25;5073124;28;20025;-63
2023/09/04 08:00:30;;;;;;;23.13;13.65;;;;;;;17.62;100.00;102454.19;5072827;28;20078;-68
2023/09/04 08:02:55;;;;;;;23.15;14.35;;;;;;;17.96;100.00;102459.53;5088968;28;20056;-68
2023/09/04 08:05:21;;;;;;;22.75;13.23;;;;;;;18.01;100.00;102462.22;5072978;28;20033;-68
2023/09/04 08:07:46;;;;;;;21.63;12.65;;;;;;;18.13;100.00;102456.84;5072784;28;20063;-65
2023/09/04 08:10:13;;;;;;;22.50;12.98;;;;;;;18.20;100.00;102463.06;5072643;28;20040;-68
2023/09/04 08:12:38;;;;;;;21.48;12.23;;;;;;;18.24;100.00;102454.16;5072816;28;20032;-67
2023/09/04 08:15:04;;;;;;;22.65;12.57;;;;;;;18.32;100.00;102454.13;5072779;28;20086;-67
2023/09/04 08:17:30;;;;;;;20.92;11.50;;;;;;;18.54;100.00;102452.28;5073079;28;20032;-68
2023/09/04 08:19:55;;;;;;;22.23;11.85;;;;;;;18.72;100.00;102446.84;5068986;28;20035;-62
2023/09/04 08:22:20;;;;;;;21.33;11.18;;;;;;;18.75;100.00;102441.47;5075668;28;20430;-64
2023/09/04 08:24:48;;;;;;;23.00;11.63;;;;;;;18.77;100.00;102452.16;5072805;28;20435;-65
2023/09/04 08:27:14;;;;;;;21.45;10.90;;;;;;;18.81;100.00;102445.91;5071271;28;20043;-62
2023/09/04 08:29:39;;;;;;;20.52;10.60;;;;;;;18.87;100.00;102451.25;5069390;28;20024;-61
2023/09/04 08:32:05;;;;;;;20.35;10.77;;;;;;;18.89;100.00;102445.94;5068739;28;20437;-62
2023/09/04 08:34:30;;;;;;;19.92;10.15;;;;;;;19.01;100.00;102443.16;5067846;28;20035;-63
2023/09/04 08:36:55;;;;;;;21.25;10.85;;;;;;;19.21;100.00;102439.47;5071676;28;20045;-62
2023/09/04 08:39:21;;;;;;;20.15;9.95;;;;;;;19.41;100.00;102431.28;5072247;28;20115;-64
2023/09/04 08:41:47;;;;;;;21.25;10.23;;;;;;;19.62;100.00;102438.28;5071245;28;20033;-63
2023/09/04 08:44:13;;;;;;;20.23;9.82;;;;;;;19.86;100.00;102445.25;5072432;28;20456;-73
2023/09/04 08:46:40;;;;;;;19.30;9.13;;;;;;;20.06;100.00;102447.75;5072359;28;20040;-73
2023/09/04 08:49:05;;;;;;;20.05;9.07;;;;;;;20.20;100.00;102445.81;5072218;28;20044;-70
2023/09/04 08:51:31;;;;;;;20.17;9.30;;;;;;;20.63;100.00;102448.91;5072472;28;20025;-71
2023/09/04 08:53:57;;;;;;;19.05;8.13;;;;;;;21.40;100.00;102445.16;5072303;28;20029;-70
2023/09/04 08:56:24;;;;;;;19.10;8.02;;;;;;;22.29;100.00;102449.03;5070872;28;20478;-72
2023/09/04 08:58:50;;;;;;;18.08;7.15;;;;;;;22.90;100.00;102446.00;5072379;28;20463;-73
2023/09/04 09:01:17;;;;;;;18.33;7.28;;;;;;;23.23;100.00;102434.53;5071796;28;20035;-72
2023/09/04 09:03:42;;;;;;;18.33;7.28;;;;;;;23.62;100.00;102443.44;5071965;28;20418;-71
2023/09/04 09:06:08;;;;;;;16.48;6.55;;;;;;;23.95;100.00;102440.78;5072281;28;20086;-74
2023/09/04 09:08:35;;;;;;;18.75;6.75;;;;;;;24.45;100.00;102434.03;5070600;28;20052;-65
2023/09/04 09:11:03;;;;;;;16.35;6.05;;;;;;;24.66;100.00;102432.56;5068129;28;20070;-64
2023/09/04 09:13:28;;;;;;;16.08;6.05;;;;;;;24.77;100.00;102430.41;5068163;28;20107;-71
2023/09/04 09:15:54;;;;;;;17.10;5.65;;;;;;;25.12;100.00;102427.53;5068986;28;20388;-67
2023/09/04 09:18:42;;;;;;;15.02;5.75;;;;;;;25.62;100.00;102433.13;5063932;28;20661;-68
2023/09/04 09:21:30;;;;;;;16.95;5.65;;;;;;;25.89;100.00;102441.22;5059914;28;20032;-69
2023/09/04 09:24:16;;;;;;;15.38;5.70;;;;;;;25.97;100.00;102439.13;5068493;28;20024;-68
2023/09/04 09:26:51;;;;;;;15.75;5.45;;;;;;;25.93;100.00;102445.59;5066168;28;20032;-68
2023/09/04 09:29:19;;;;;;;15.85;5.35;;;;;;;26.15;100.00;102442.16;5068211;28;20029;-68
2023/09/04 09:31:45;;;;;;;14.18;5.45;;;;;;;25.87;100.00;102443.09;5072270;28;20025;-69
2023/09/04 09:34:11;;;;;;;13.98;4.97;;;;;;;25.57;100.00;102445.91;5068281;28;20495;-69
2023/09/04 09:36:37;;;;;;;13.15;5.35;;;;;;;25.30;100.00;102440.47;5067611;28;20052;-68
2023/09/04 09:39:04;;;;;;;15.98;5.18;;;;;;;25.26;100.00;102435.22;5063099;28;20041;-65
2023/09/04 09:41:30;;;;;;;14.43;5.00;;;;;;;25.28;100.00;102439.66;5061861;28;20021;-62
2023/09/04 09:43:55;;;;;;;13.18;4.35;;;;;;;25.72;100.00;102447.25;5069084;28;20486;-67
2023/09/04 09:46:21;;;;;;;13.15;4.80;;;;;;;26.48;100.00;102431.03;5072523;28;20033;-66
2023/09/04 09:48:46;;;;;;;14.45;4.60;;;;;;;27.08;97.19;102436.84;5075306;28;20029;-65
2023/09/04 09:51:13;;;;;;;13.27;4.75;;;;;;;27.44;83.26;102433.59;5075495;28;20027;-62
2023/09/04 09:53:46;;;;;;;13.80;4.80;;;;;;;27.59;82.46;102440.19;5075461;28;20016;-65
2023/09/04 09:56:13;;;;;;;13.75;4.63;;;;;;;27.99;78.96;102435.78;5074793;28;20032;-66
2023/09/04 09:58:41;;;;;;;11.75;4.30;;;;;;;28.77;75.09;102434.03;5074970;28;20052;-67
2023/09/04 10:01:06;;;;;;;12.82;4.75;;;;;;;29.63;67.93;102428.03;5075182;28;20032;-68
2023/09/04 10:03:33;;;;;;;12.45;4.45;;;;;;;30.32;63.59;102418.94;5075019;28;20028;-69
2023/09/04 10:06:04;;;;;;;13.55;4.57;;;;;;;30.53;62.70;102418.75;5075039;28;20024;-69
2023/09/04 10:08:36;;;;;;;11.13;4.30;;;;;;;30.88;59.86;102415.88;5075013;28;20063;-68
2023/09/04 10:11:06;;;;;;;11.85;4.57;;;;;;;31.24;58.29;102403.81;5074857;28;20025;-70
2023/09/04 10:13:37;;;;;;;12.20;4.47;;;;;;;31.13;56.02;102411.75;5075092;28;20374;-70
2023/09/04 10:16:07;;;;;;;10.88;4.30;;;;;;;30.87;59.57;102412.28;5074789;28;20062;-67
2023/09/04 10:18:35;;;;;;;11.60;4.10;;;;;;;31.51;55.27;102417.66;5075043;28;20099;-69
2023/09/04 10:21:06;;;;;;;11.68;4.20;;;;;;;31.77;54.16;102417.97;5074718;28;20039;-62
2023/09/04 10:23:47;;;;;;;10.27;3.80;;;;;;;32.05;50.21;102411.66;5074855;28;20031;-67
2023/09/04 10:26:19;;;;;;;10.40;4.00;;;;;;;31.89;49.63;102414.50;5074617;28;20036;-69
2023/09/04 10:28:56;;;;;;;10.35;3.78;;;;;;;32.02;51.96;102402.78;5074457;28;20287;-68
2023/09/04 10:31:24;;;;;;;11.57;3.78;;;;;;;32.74;47.92;102403.69;5071798;28;20024;-74
2023/09/04 10:33:50;;;;;;;10.32;3.72;;;;;;;33.08;44.80;102395.97;5070914;28;20471;-69
2023/09/04 10:36:16;;;;;;;10.90;3.60;;;;;;;33.66;44.75;102396.59;5074217;28;20048;-74
2023/09/04 10:38:42;;;;;;;11.93;3.60;;;;;;;34.00;44.67;102396.09;5074690;28;20036;-72
2023/09/04 10:41:10;;;;;;;11.85;3.70;;;;;;;34.13;43.33;102396.09;5074358;28;20025;-66
2023/09/04 10:43:40;;;;;;;10.93;3.72;;;;;;;34.15;43.65;102394.13;5071363;28;20024;-67
2023/09/04 10:46:08;;;;;;;8.23;3.72;;;;;;;34.30;41.75;102389.44;5074473;28;20036;-71
2023/09/04 10:48:50;;;;;;;9.45;3.70;;;;;;;34.32;43.42;102391.06;5073989;28;20537;-65
2023/09/04 10:51:35;;;;;;;10.05;3.90;;;;;;;33.96;44.31;102389.06;5067415;28;20021;-62
2023/09/04 10:54:24;;;;;;;9.40;3.78;;;;;;;34.28;45.09;102383.16;5069512;28;20024;-66
2023/09/04 10:56:56;;;;;;;11.20;3.50;;;;;;;33.98;41.63;102381.63;5066716;28;20029;-65
2023/09/04 10:59:22;;;;;;;9.40;3.38;;;;;;;33.52;41.21;102378.38;5070139;28;20103;-69
2023/09/04 11:01:48;;;;;;;8.00;3.40;;;;;;;33.26;42.38;102371.97;5074131;28;20025;-66
2023/09/04 11:04:31;;;;;;;8.85;3.40;;;;;;;33.12;42.94;102358.31;5074344;28;20035;-73